Flight Track Log - Related Links

Times and Time Zones

All times are in EDT time to prevent confusion due to time zone crossing. See the ASQ5025 flight status page for this flight to view local times or setup timezone preferences in your user account.

Time Position Orientation Groundspeed Altitude Reporting Facility
EDT Latitude Longitude Course Direction KTS MPH feet Rate Location/Type
Tue 09:37:33 AM 40.7500 -73.8333 123° Southeast 155 178 1,800  Level New York TRACON
Tue 09:38:33 AM 40.7333 -73.8000 123° Southeast 213 245 4,100 2,446 Climbing New York TRACON
Tue 09:40:37 AM 40.8511 -73.7050 31° Northeast 272 313 9,300 2,315 Climbing Boston Center
Tue 09:41:37 AM 40.9267 -73.6597 24° Northeast 282 325 11,200 1,950 Climbing Boston Center
Tue 09:42:37 AM 41.0128 -73.6064 25° Northeast 321 369 13,200 2,150 Climbing Boston Center
Tue 09:43:37 AM 41.1153 -73.5422 25° Northeast 355 409 15,500 2,250 Climbing Boston Center
Tue 09:44:37 AM 41.2014 -73.4883 25° Northeast 369 425 17,700 2,200 Climbing Boston Center
Tue 09:45:37 AM 41.2997 -73.4292 24° Northeast 375 432 19,900 2,100 Climbing Boston Center
Tue 09:46:37 AM 41.3942 -73.3753 23° Northeast 375 432 21,900 1,650 Climbing Boston Center
Tue 09:47:37 AM 41.4983 -73.3714 North 365 420 23,200 1,150 Climbing Boston Center
Tue 09:48:37 AM 41.6067 -73.3728 359° North 371 427 24,200 1,339 Climbing Boston Center
Tue 09:49:38 AM 41.7192 -73.3719 360° North 390 449 25,900 1,400 Climbing Boston Center
Tue 09:50:37 AM 41.8339 -73.3681 North 395 455 27,000 555 Climbing Boston Center
Tue 09:51:37 AM 41.9444 -73.3667 North 400 460 27,000  Level Boston Center
Tue 09:52:37 AM 42.0611 -73.3656 360° North 405 466 27,000  Level Boston Center
Tue 09:53:37 AM 42.1842 -73.3533 North 423 487 27,000  Level Boston Center
Tue 09:54:37 AM 42.3031 -73.3525 360° North 423 487 27,000  Level Boston Center
Tue 09:55:37 AM 42.4322 -73.3600 358° North 424 488 27,000  Level Boston Center
Tue 09:56:37 AM 42.5531 -73.3561 North 431 496 27,000  Level Boston Center
Tue 09:57:37 AM 42.6781 -73.3550 360° North 431 496 27,000  Level Boston Center
Tue 09:58:37 AM 42.7989 -73.3511 North 431 496 27,000  Level Boston Center
Tue 09:59:37 AM 42.9219 -73.3475 North 431 496 27,000  Level Boston Center
Tue 10:00:37 AM 43.0472 -73.3408 North 441 507 27,000  Level Boston Center
Tue 10:01:37 AM 43.1703 -73.3253 North 441 507 27,000 -950 Level Boston Center
Tue 10:02:37 AM 43.2953 -73.3072 North 441 507 25,100 -1,500 Descending Boston Center
Tue 10:03:37 AM 43.3914 -73.2972 North 441 507 24,000 -600 Descending Boston Center
Tue 10:04:37 AM 43.5186 -73.2789 North 436 502 23,900 -1,785 Descending Boston Center
Tue 10:05:38 AM 43.6311 -73.2661 North 419 482 20,400 -3,600 Descending Boston Center
Tue 10:06:37 AM 43.7542 -73.2506 North 411 473 16,700 -3,681 Descending Boston Center
Tue 10:07:37 AM 43.8689 -73.2350 North 404 465 13,100 -2,850 Descending Boston Center
Tue 10:08:37 AM 43.9753 -73.2192 North 398 458 11,000 -1,050 Descending Boston Center
Tue 10:09:37 AM 44.0797 -73.2058 North 387 445 11,000 -550 Level Boston Center
Tue 10:10:37 AM 44.1647 -73.2303 348° North 338 389 9,900 -1,900 Descending Boston Center
Tue 10:11:37 AM 44.2417 -73.2572 346° North 297 342 7,200 -2,500 Descending Boston Center
Tue 10:12:37 AM 44.3186 -73.2817 347° North 277 319 4,900 -2,150 Descending Boston Center
Tue 10:13:37 AM 44.3936 -73.2883 356° North 277 319 2,900 -1,450 Descending Boston Center
Tue 10:14:37 AM 44.4603 -73.2778 North 260 299 2,000 -600 Descending Boston Center
Tue 10:15:37 AM 44.5106 -73.2639 11° North 211 243 1,700 -350 Descending Boston Center
Tue 10:16:37 AM 44.5108 -73.2144 90° East 112 129 1,300 -545 Descending Boston Center
Tue 10:17:49 AM 44.4861 -73.1761 132° Southeast 106 122 500 -455 Descending Boston Center
Tue 10:18:49 AM 44.4717 -73.1500 128° Southeast 104 120 300 11,750 Descending Boston Center
Tue 10:19:49 AM 44.4531 -73.1031 119° Southeast 104 120 24,000 11,850 Climbing Boston Center
Tue 10:20:49 AM 44.4389 -73.0653 118° Southeast 104 120 24,000  Level Boston Center
Tue 10:21:50 AM 44.4222 -73.0300 123° Southeast 104 120 24,000  Level Boston Center

Login

Don't have an account? Register now (free) for customized features, flight alerts, and more!